Terminal Aerodrome Forecast
Issued by NWS Missoula, MT

Home | Current Version | Previous Version | Text Only | Print | Product List | Glossary On
Versions: 1 2 3 4 5 6 7 8 9 10 11 12 13 14 15 16 17 18 19 20 21 22 23 24
000
FTUS45 KMSO 271147 RRA
TAFGPI
TAF
KGPI 271147Z 2712/2812 VRB03KT 2SM BR SCT002
      TEMPO 2712/2714 1/2SM FG
     FM271500 VRB03KT 3SM BR SCT002 SCT200
     FM271630 VRB03KT P6SM SCT200=

USA.gov is the U.S. government's official web portal to all federal, state and local government web resources and services.